createdAt,value
2018-11-28T04:01:06.344Z,2.38
2018-11-28T04:02:06.896Z,2.33
2018-11-28T04:03:07.000Z,2.33
2018-11-28T04:04:06.845Z,2.38
2018-11-28T04:05:05.460Z,2.35
2018-11-28T04:06:05.240Z,2.31
2018-11-28T04:07:05.448Z,2.36
2018-11-28T04:08:05.610Z,2.32
2018-11-28T04:09:05.762Z,2.38
2018-11-28T04:10:05.907Z,2.38
2018-11-28T04:11:06.066Z,2.28
2018-11-28T04:12:06.226Z,2.29
2018-11-28T04:13:06.409Z,2.42
2018-11-28T04:14:06.545Z,2.35
2018-11-28T04:15:06.739Z,2.39
2018-11-28T04:16:06.863Z,2.33
2018-11-28T04:17:06.981Z,2.31
2018-11-28T04:18:07.167Z,2.26
2018-11-28T04:19:07.349Z,2.29
2018-11-28T04:20:07.497Z,2.42
2018-11-28T04:21:07.641Z,2.35
2018-11-28T04:22:07.773Z,2.26
2018-11-28T04:23:07.992Z,2.25
2018-11-28T04:24:08.171Z,2.38
2018-11-28T04:25:08.275Z,2.38
2018-11-28T04:26:08.477Z,2.39
2018-11-28T04:27:08.686Z,2.39
2018-11-28T04:28:08.787Z,2.39
2018-11-28T04:29:08.890Z,2.38
2018-11-28T04:30:09.121Z,2.39
2018-11-28T04:31:09.248Z,2.36
2018-11-28T04:32:09.448Z,2.38
2018-11-28T04:33:09.532Z,2.44
2018-11-28T04:34:09.694Z,2.38
2018-11-28T04:35:09.916Z,2.42
2018-11-28T04:36:10.118Z,2.38
2018-11-28T04:37:10.305Z,2.42
2018-11-28T04:38:10.546Z,2.36
2018-11-28T04:39:10.565Z,2.39
2018-11-28T04:40:10.717Z,2.38
2018-11-28T04:41:10.932Z,2.43
2018-11-28T04:42:11.210Z,2.39
2018-11-28T04:43:11.241Z,2.38
2018-11-28T04:44:11.613Z,2.33
2018-11-28T04:45:11.762Z,2.38
2018-11-28T04:46:12.018Z,2.38
2018-11-28T04:47:12.180Z,2.36
2018-11-28T04:48:12.282Z,2.46
2018-11-28T04:49:12.524Z,2.42
2018-11-28T04:50:12.890Z,2.33
2018-11-28T04:51:12.610Z,2.42
2018-11-28T04:52:13.020Z,2.39
2018-11-28T04:53:13.051Z,2.43
2018-11-28T04:54:13.066Z,2.42
2018-11-28T04:55:13.922Z,2.35
2018-11-28T04:56:13.783Z,2.39
2018-11-28T04:57:13.746Z,2.38
2018-11-28T04:58:14.031Z,2.36
2018-11-28T04:59:14.043Z,2.39
2018-11-28T05:00:14.560Z,2.38
2018-11-28T05:02:51.686Z,2.29
2018-11-28T05:03:51.188Z,2.38
2018-11-28T05:04:51.393Z,2.35
2018-11-28T05:05:51.583Z,2.44
2018-11-28T05:06:52.190Z,2.35
2018-11-28T05:07:52.278Z,2.38
2018-11-28T05:08:59.635Z,2.35
2018-11-28T05:09:52.104Z,2.39
2018-11-28T05:10:52.450Z,2.43
2018-11-28T05:11:52.300Z,2.47
2018-11-28T05:12:52.595Z,2.39
2018-11-28T05:14:52.743Z,2.49
2018-11-28T05:15:51.968Z,2.54
2018-11-28T05:16:51.010Z,2.60
2018-11-28T05:17:51.015Z,2.57
2018-11-28T05:18:51.202Z,2.56
2018-11-28T05:19:51.358Z,2.53
2018-11-28T05:20:51.556Z,2.50
2018-11-28T05:21:51.640Z,2.54
2018-11-28T05:22:51.726Z,2.49
2018-11-28T05:23:51.966Z,2.62
2018-11-28T05:24:52.092Z,2.54
2018-11-28T05:25:52.289Z,2.61
2018-11-28T05:26:52.434Z,2.47
2018-11-28T05:27:52.574Z,2.51
2018-11-28T05:28:52.773Z,2.61
2018-11-28T05:29:52.877Z,2.54
2018-11-28T05:30:53.102Z,2.65
2018-11-28T05:31:53.169Z,2.54
2018-11-28T05:32:53.350Z,2.47
2018-11-28T05:33:53.571Z,2.54
2018-11-28T05:34:53.737Z,2.54
2018-11-28T05:35:53.819Z,2.53
2018-11-28T05:36:54.975Z,2.50
2018-11-28T05:37:54.122Z,2.44
2018-11-28T05:38:54.301Z,2.43
2018-11-28T05:39:54.461Z,2.62
2018-11-28T05:40:54.682Z,2.56
2018-11-28T05:41:54.761Z,2.49
2018-11-28T05:42:54.945Z,2.60
2018-11-28T05:43:55.118Z,2.50
2018-11-28T05:44:55.338Z,2.46
2018-11-28T05:45:55.419Z,2.51
2018-11-28T05:46:55.569Z,2.57
2018-11-28T05:47:55.753Z,2.53
2018-11-28T05:48:55.908Z,2.57
2018-11-28T05:49:56.002Z,2.51
2018-11-28T05:50:56.189Z,2.57
2018-11-28T05:51:56.365Z,2.56
2018-11-28T05:52:56.519Z,2.62
2018-11-28T05:53:56.645Z,2.50
2018-11-28T05:54:56.972Z,2.56
2018-11-28T05:55:56.950Z,2.46
2018-11-28T05:56:57.162Z,2.50
2018-11-28T05:57:57.314Z,2.57
2018-11-28T05:58:57.466Z,2.51
2018-11-28T05:59:57.563Z,2.44
2018-11-28T06:00:57.819Z,2.47
2018-11-28T06:01:57.903Z,2.42
2018-11-28T06:02:58.078Z,2.38
2018-11-28T06:03:58.278Z,2.43
2018-11-28T06:04:58.469Z,2.42
2018-11-28T06:05:58.639Z,2.36
2018-11-28T06:06:58.838Z,2.26
2018-11-28T06:07:58.926Z,2.35
2018-11-28T06:08:59.140Z,2.28
2018-11-28T06:09:59.256Z,2.24
2018-11-28T06:10:59.401Z,2.22
2018-11-28T06:11:59.572Z,2.28
2018-11-28T06:12:59.681Z,2.20
2018-11-28T06:13:59.919Z,2.11
2018-11-28T06:14:59.988Z,2.08
2018-11-28T06:16:00.278Z,2.06
2018-11-28T06:17:00.385Z,1.97
2018-11-28T06:18:00.562Z,1.88
2018-11-28T06:19:00.691Z,1.88
2018-11-28T06:20:00.762Z,1.99
2018-11-28T06:21:01.017Z,1.95
2018-11-28T06:22:01.202Z,1.91
2018-11-28T06:23:01.302Z,1.80
2018-11-28T06:24:01.517Z,1.84
2018-11-28T06:25:01.710Z,1.87
2018-11-28T06:26:01.741Z,1.84
2018-11-28T06:27:01.996Z,1.84
2018-11-28T06:28:02.125Z,1.85
2018-11-28T06:29:02.351Z,1.74
2018-11-28T06:30:02.580Z,1.77
2018-11-28T06:31:02.711Z,1.85
2018-11-28T06:32:02.923Z,1.80
2018-11-28T06:33:03.042Z,1.84
2018-11-28T06:34:03.264Z,1.74
2018-11-28T06:35:03.355Z,1.68
2018-11-28T06:36:03.493Z,1.70
2018-11-28T06:37:04.498Z,1.77
2018-11-28T06:38:03.890Z,1.73
2018-11-28T06:39:03.934Z,1.73
2018-11-28T06:40:04.053Z,1.59
2018-11-28T06:41:04.240Z,1.58
2018-11-28T06:42:04.410Z,1.50
2018-11-28T06:43:04.582Z,1.62
2018-11-28T06:44:04.736Z,1.52
2018-11-28T06:45:04.944Z,1.56
2018-11-28T06:46:05.019Z,1.53
2018-11-28T06:47:05.236Z,1.55
2018-11-28T06:48:05.323Z,1.53
2018-11-28T06:49:05.503Z,1.42
2018-11-28T06:50:05.632Z,1.53
2018-11-28T06:51:05.840Z,1.44
2018-11-28T06:52:05.988Z,1.42
2018-11-28T06:53:06.177Z,1.55
2018-11-28T06:54:06.324Z,1.40
2018-11-28T06:55:06.455Z,1.45
2018-11-28T06:56:06.647Z,1.48
2018-11-28T06:57:06.785Z,1.45
2018-11-28T06:58:06.955Z,1.41
2018-11-28T06:59:07.286Z,1.34
2018-11-28T07:00:08.125Z,1.34
2018-11-28T07:01:07.579Z,1.32
2018-11-28T07:02:08.021Z,1.20
2018-11-28T07:03:08.426Z,1.20
2018-11-28T07:04:08.648Z,1.34
2018-11-28T07:05:08.336Z,1.35
2018-11-28T07:06:08.197Z,1.34
2018-11-28T07:07:21.564Z,1.34
2018-11-28T07:08:11.622Z,1.32
2018-11-28T07:09:41.282Z,1.22
2018-11-28T07:10:13.141Z,1.16
2018-11-28T07:11:11.523Z,1.26
2018-11-28T07:12:12.390Z,1.32
2018-11-28T07:13:14.991Z,1.32
2018-11-28T07:14:13.052Z,1.30
2018-11-28T07:15:12.186Z,1.34
2018-11-28T07:20:37.664Z,1.50
2018-11-28T07:25:48.644Z,1.49
2018-11-28T07:26:49.398Z,1.49
2018-11-28T07:27:49.839Z,1.60
2018-11-28T07:28:48.743Z,1.52
2018-11-28T07:29:50.360Z,1.55
2018-11-28T07:30:52.207Z,1.55
2018-11-28T07:31:51.746Z,1.59
2018-11-28T07:32:49.598Z,1.58
2018-11-28T07:35:23.765Z,1.63
2018-11-28T07:36:08.253Z,1.67
2018-11-28T07:36:51.167Z,1.68
2018-11-28T07:38:05.192Z,1.77
2018-11-28T07:39:24.540Z,1.71
2018-11-28T07:39:50.693Z,1.76
2018-11-28T07:40:52.398Z,1.77
2018-11-28T07:41:51.155Z,1.76
2018-11-28T07:42:52.123Z,1.74
2018-11-28T07:43:51.960Z,1.68
2018-11-28T07:44:52.398Z,1.68
2018-11-28T07:45:54.466Z,1.70
2018-11-28T07:46:50.885Z,1.77
2018-11-28T07:47:50.253Z,1.76
2018-11-28T07:48:50.220Z,1.87
2018-11-28T07:49:50.253Z,1.87
2018-11-28T07:50:51.324Z,1.99
2018-11-28T07:51:51.166Z,2.04
2018-11-28T07:52:51.556Z,2.07
2018-11-28T07:56:16.602Z,2.26
2018-11-28T08:00:46.144Z,2.06
2018-11-28T08:01:47.030Z,1.99
2018-11-28T08:02:47.184Z,2.00
2018-11-28T08:04:06.416Z,2.00
2018-11-28T08:04:59.179Z,1.97
2018-11-28T08:05:48.206Z,2.02
2018-11-28T08:06:48.904Z,2.04
2018-11-28T08:07:49.663Z,1.99
2018-11-28T08:08:50.731Z,2.02
2018-11-28T08:09:50.909Z,1.85
2018-11-28T08:11:01.275Z,1.91
2018-11-28T08:15:02.420Z,2.06
2018-11-28T08:16:05.087Z,2.15
2018-11-28T08:17:12.618Z,2.10
2018-11-28T08:18:03.442Z,2.20
2018-11-28T08:19:04.266Z,2.29
2018-11-28T08:21:03.985Z,2.36
2018-11-28T08:22:04.095Z,2.44
2018-11-28T08:23:04.434Z,2.42
2018-11-28T08:24:04.039Z,2.46
2018-11-28T08:25:04.979Z,2.50
2018-11-28T08:26:05.086Z,2.43
2018-11-28T08:27:04.884Z,2.54
2018-11-28T08:28:08.813Z,2.56
2018-11-28T08:29:06.089Z,2.62
2018-11-28T08:30:05.654Z,2.60
2018-11-28T08:31:05.405Z,2.68
2018-11-28T08:32:05.515Z,2.64
2018-11-28T08:34:52.519Z,2.95
2018-11-28T08:35:52.936Z,3.08
2018-11-28T08:36:52.968Z,3.01
2018-11-28T08:37:53.902Z,3.08
2018-11-28T08:38:56.302Z,3.32
2018-11-28T08:39:56.333Z,3.31
2018-11-28T08:40:57.441Z,3.56
2018-11-28T08:42:00.550Z,3.70
2018-11-28T08:43:00.013Z,3.86
2018-11-28T08:43:56.687Z,3.94
2018-11-28T08:44:52.702Z,4.16
2018-11-28T08:45:53.172Z,4.14
2018-11-28T08:46:53.234Z,4.06
2018-11-28T08:47:53.071Z,4.16
2018-11-28T08:48:53.666Z,4.23
2018-11-28T08:49:54.904Z,4.38
2018-11-28T08:50:53.986Z,4.41
2018-11-28T08:51:53.493Z,4.31
2018-11-28T08:52:53.973Z,4.26
2018-11-28T08:53:53.791Z,4.35
2018-11-28T08:54:54.217Z,4.52
2018-11-28T08:55:54.392Z,4.40
2018-11-28T08:56:54.007Z,4.50
2018-11-28T08:57:54.398Z,4.34
2018-11-28T08:58:55.824Z,4.45
2018-11-28T08:59:57.639Z,4.59
2018-11-28T09:00:56.436Z,4.96
2018-11-28T09:01:55.508Z,5.14
2018-11-28T09:02:55.527Z,5.12
2018-11-28T09:03:55.939Z,5.26
2018-11-28T09:04:56.215Z,5.23
2018-11-28T09:05:58.081Z,5.28
2018-11-28T09:06:57.506Z,5.14
2018-11-28T09:15:46.693Z,4.97
2018-11-28T09:16:48.399Z,5.04
2018-11-28T09:18:17.598Z,4.92
2018-11-28T09:18:58.613Z,5.04
2018-11-28T09:20:33.841Z,4.94
2018-11-28T09:24:26.991Z,5.23
2018-11-28T09:28:04.242Z,5.62
2018-11-28T09:29:14.420Z,5.80
2018-11-28T09:30:08.217Z,5.80
2018-11-28T09:31:07.606Z,6.26
2018-11-28T09:32:04.841Z,6.51
2018-11-28T09:33:06.007Z,6.79
2018-11-28T09:34:07.697Z,7.00
2018-11-28T09:43:54.137Z,7.91
2018-11-28T09:44:40.879Z,7.67
2018-11-28T09:45:45.167Z,7.67
2018-11-28T09:46:47.214Z,7.66
2018-11-28T09:47:58.319Z,7.47
2018-11-28T09:53:40.887Z,7.29
2018-11-28T09:54:29.107Z,7.48
2018-11-28T10:13:08.319Z,8.66
2018-11-28T10:20:44.850Z,7.91
2018-11-28T10:25:17.338Z,7.94
2018-11-28T10:26:18.190Z,8.00
2018-11-28T10:27:17.448Z,8.09
2018-11-28T11:01:29.458Z,12.54
2018-11-28T11:05:30.443Z,13.30
2018-11-28T11:12:04.392Z,15.15
2018-11-28T11:13:08.341Z,15.00
2018-11-28T11:15:05.983Z,15.04
2018-11-28T11:16:00.756Z,14.91
2018-11-28T11:17:01.625Z,14.82
2018-11-28T11:19:52.671Z,14.54
2018-11-28T11:20:58.080Z,14.88
2018-11-28T11:21:53.760Z,15.24
2018-11-28T11:22:54.691Z,15.58
2018-11-28T11:23:53.766Z,15.75
2018-11-28T11:24:53.403Z,15.47
2018-11-28T11:25:52.234Z,15.31
2018-11-28T11:26:51.439Z,15.11
2018-11-28T11:27:52.113Z,14.84
2018-11-28T11:28:55.050Z,14.55
2018-11-28T11:29:53.429Z,14.00
2018-11-28T11:30:52.602Z,14.04
2018-11-28T11:31:54.624Z,13.70
2018-11-28T11:32:52.541Z,13.59
2018-11-28T11:33:52.652Z,13.52
2018-11-28T11:34:53.456Z,13.37
2018-11-28T11:35:53.098Z,13.33
2018-11-28T11:36:53.195Z,13.28
2018-11-28T11:37:53.222Z,13.11
2018-11-28T11:38:53.373Z,12.86
2018-11-28T11:39:53.994Z,12.72
2018-11-28T11:40:53.729Z,12.42
2018-11-28T11:41:53.926Z,12.32
2018-11-28T11:42:54.020Z,12.17
2018-11-28T11:43:54.326Z,11.94
2018-11-28T11:44:54.599Z,11.78
2018-11-28T11:45:54.644Z,11.66
2018-11-28T11:46:54.758Z,11.50
2018-11-28T11:47:54.927Z,11.50
2018-11-28T11:48:55.143Z,11.44
2018-11-28T11:49:55.385Z,11.17
2018-11-28T11:50:56.099Z,11.17
2018-11-28T11:51:55.786Z,11.26
2018-11-28T11:52:55.830Z,11.27
2018-11-28T11:53:57.086Z,11.29
2018-11-28T11:55:00.632Z,11.36
2018-11-28T11:58:47.746Z,12.68
2018-11-28T11:59:19.816Z,13.13
2018-11-28T12:00:23.520Z,13.44
2018-11-28T12:01:20.378Z,13.39
2018-11-28T12:02:27.482Z,13.28
2018-11-28T12:12:43.472Z,12.94
2018-11-28T12:13:40.556Z,12.86
2018-11-28T12:14:41.421Z,12.65
2018-11-28T12:15:38.684Z,12.20
2018-11-28T12:16:38.962Z,11.87
2018-11-28T12:17:39.410Z,11.62
2018-11-28T12:18:38.951Z,11.15
2018-11-28T12:19:39.101Z,11.18
2018-11-28T12:20:39.270Z,11.26
2018-11-28T12:21:39.448Z,11.27
2018-11-28T12:22:39.578Z,11.69
2018-11-28T12:23:39.685Z,11.62
2018-11-28T12:24:39.936Z,11.50
2018-11-28T12:25:40.006Z,11.15
2018-11-28T12:26:40.187Z,10.84
2018-11-28T12:27:40.434Z,10.71
2018-11-28T12:28:40.525Z,10.42
2018-11-28T12:29:40.705Z,10.37
2018-11-28T12:30:40.853Z,10.41
2018-11-28T12:31:41.029Z,10.44
2018-11-28T12:32:41.160Z,10.10
2018-11-28T12:33:41.352Z,9.97
2018-11-28T12:34:41.467Z,9.99
2018-11-28T12:35:41.669Z,10.09
2018-11-28T12:36:41.901Z,10.10
2018-11-28T12:37:41.979Z,10.17
2018-11-28T12:38:42.191Z,10.05
2018-11-28T12:39:42.322Z,10.40
2018-11-28T12:40:42.520Z,10.69
2018-11-28T12:41:42.571Z,11.12
2018-11-28T12:42:42.787Z,11.54
2018-11-28T12:43:42.896Z,11.52
2018-11-28T12:44:43.107Z,11.30
2018-11-28T12:45:43.218Z,10.96
2018-11-28T12:46:43.359Z,10.74
2018-11-28T12:47:43.591Z,10.72
2018-11-28T12:48:43.792Z,10.59
2018-11-28T12:49:43.938Z,10.87
2018-11-28T12:50:44.100Z,10.93
2018-11-28T12:51:44.270Z,11.41
2018-11-28T12:52:44.402Z,11.50
2018-11-28T12:53:44.577Z,11.55
2018-11-28T12:54:44.719Z,11.78
2018-11-28T12:55:44.911Z,11.86
2018-11-28T12:56:45.100Z,11.77
2018-11-28T12:57:45.218Z,11.70
2018-11-28T12:58:45.342Z,11.57
2018-11-28T12:59:45.564Z,11.51
2018-11-28T13:00:45.749Z,11.52
2018-11-28T13:01:45.872Z,11.52
2018-11-28T13:02:46.136Z,11.40
2018-11-28T13:03:46.303Z,11.44
2018-11-28T13:04:46.493Z,11.50
2018-11-28T13:05:46.671Z,11.72
2018-11-28T13:06:46.885Z,11.99
2018-11-28T13:07:47.030Z,12.21
2018-11-28T13:08:47.207Z,12.28
2018-11-28T13:09:47.239Z,12.40
2018-11-28T13:10:47.455Z,12.64
2018-11-28T13:11:47.590Z,12.37
2018-11-28T13:12:47.786Z,12.09
2018-11-28T13:13:47.961Z,12.06
2018-11-28T13:14:48.119Z,11.81
2018-11-28T13:15:48.246Z,11.60
2018-11-28T13:16:48.423Z,11.59
2018-11-28T13:17:48.613Z,11.57
2018-11-28T13:18:48.724Z,11.60
2018-11-28T13:19:48.975Z,11.63
2018-11-28T13:20:49.149Z,11.60
2018-11-28T13:21:49.388Z,11.69
2018-11-28T13:22:49.484Z,11.59
2018-11-28T13:23:49.776Z,11.68
2018-11-28T13:24:49.786Z,11.73
2018-11-28T13:25:49.968Z,11.59
2018-11-28T13:26:50.177Z,11.55
2018-11-28T13:27:50.285Z,11.11
2018-11-28T13:28:50.537Z,10.94
2018-11-28T13:29:50.617Z,10.99
2018-11-28T13:30:50.821Z,11.18
2018-11-28T13:31:51.066Z,11.27
2018-11-28T13:32:51.135Z,11.73
2018-11-28T13:33:51.331Z,11.88
2018-11-28T13:34:51.538Z,11.73
2018-11-28T13:35:51.722Z,11.99
2018-11-28T13:36:51.782Z,11.66
2018-11-28T13:37:52.023Z,11.47
2018-11-28T13:38:52.199Z,11.32
2018-11-28T13:39:52.353Z,11.40
2018-11-28T13:40:52.492Z,11.57
2018-11-28T13:41:52.689Z,11.81
2018-11-28T13:42:52.825Z,12.09
2018-11-28T13:43:52.967Z,12.12
2018-11-28T13:44:53.940Z,12.10
2018-11-28T13:45:53.360Z,11.78
2018-11-28T13:46:53.523Z,11.72
2018-11-28T13:47:53.723Z,11.57
2018-11-28T13:48:53.871Z,11.23
2018-11-28T13:49:53.945Z,11.04
2018-11-28T13:50:54.194Z,10.87
2018-11-28T13:51:54.428Z,10.68
2018-11-28T13:52:54.573Z,10.57
2018-11-28T13:53:54.661Z,10.26
2018-11-28T13:55:37.550Z,10.22
2018-11-28T13:56:57.004Z,10.17
2018-11-28T13:56:59.746Z,9.82
2018-11-28T13:57:55.422Z,9.66
2018-11-28T13:58:55.551Z,9.32
2018-11-28T13:59:55.773Z,9.18
2018-11-28T14:00:55.898Z,8.94
2018-11-28T14:01:56.123Z,8.38
2018-11-28T14:02:56.239Z,8.26
2018-11-28T14:03:56.406Z,8.23
2018-11-28T14:04:56.570Z,8.16
2018-11-28T14:05:56.745Z,7.93
2018-11-28T14:06:56.999Z,7.85
2018-11-28T14:07:57.170Z,7.80
2018-11-28T14:08:57.289Z,7.67
2018-11-28T14:09:57.407Z,7.57
2018-11-28T14:10:57.566Z,7.61
2018-11-28T14:11:57.787Z,7.45
2018-11-28T14:12:57.985Z,7.40
2018-11-28T14:13:58.056Z,7.43
2018-11-28T14:14:58.315Z,7.39
2018-11-28T14:15:58.496Z,7.24
2018-11-28T14:16:58.710Z,7.25
2018-11-28T14:17:58.766Z,7.20
2018-11-28T14:18:58.885Z,7.15
2018-11-28T14:19:59.072Z,7.05
2018-11-28T14:20:59.404Z,6.99
2018-11-28T14:21:59.612Z,7.00
2018-11-28T14:22:59.664Z,6.95
2018-11-28T14:23:59.783Z,6.93
2018-11-28T14:24:59.982Z,6.82
2018-11-28T14:26:00.232Z,6.89
2018-11-28T14:27:00.350Z,6.87
2018-11-28T14:28:00.520Z,6.84
2018-11-28T14:29:00.729Z,6.79
2018-11-28T14:30:00.824Z,6.84
2018-11-28T14:31:01.033Z,6.77
2018-11-28T14:32:01.232Z,6.82
2018-11-28T14:33:01.345Z,6.69
2018-11-28T14:34:01.406Z,6.62
2018-11-28T14:35:01.575Z,6.67
2018-11-28T14:36:01.761Z,6.69
2018-11-28T14:37:01.951Z,6.60
2018-11-28T14:38:02.127Z,6.44
2018-11-28T14:39:02.746Z,6.66
2018-11-28T14:40:02.487Z,6.72
2018-11-28T14:41:02.637Z,6.70
2018-11-28T14:42:02.903Z,6.66
2018-11-28T14:43:03.103Z,6.64
2018-11-28T14:44:03.239Z,6.70
2018-11-28T14:45:03.448Z,6.77
2018-11-28T14:46:03.659Z,6.67
2018-11-28T14:47:03.832Z,6.74
2018-11-28T14:48:03.994Z,6.69
2018-11-28T14:49:04.193Z,6.66
2018-11-28T14:50:04.309Z,6.66
2018-11-28T14:51:04.551Z,6.63
2018-11-28T14:52:04.728Z,6.56
2018-11-28T14:53:04.845Z,6.49
2018-11-28T14:54:05.135Z,6.45
2018-11-28T14:55:05.158Z,6.45
2018-11-28T14:56:05.575Z,6.33
2018-11-28T14:57:05.575Z,6.31
2018-11-28T14:58:05.756Z,6.30
2018-11-28T14:59:05.981Z,6.30
2018-11-28T15:00:06.088Z,6.35
2018-11-28T15:01:06.232Z,6.30
2018-11-28T15:02:06.348Z,6.31
2018-11-28T15:03:06.518Z,6.22
2018-11-28T15:04:06.622Z,6.26
2018-11-28T15:05:07.268Z,6.20
2018-11-28T15:06:07.081Z,6.16
2018-11-28T15:07:07.191Z,6.24
2018-11-28T15:08:07.285Z,6.17
2018-11-28T15:09:07.594Z,6.24
2018-11-28T15:10:07.753Z,6.24
2018-11-28T15:11:07.836Z,6.24
2018-11-28T15:12:11.586Z,6.08
2018-11-28T15:13:08.343Z,6.04
2018-11-28T15:14:08.431Z,6.04
2018-11-28T15:15:08.588Z,5.98
2018-11-28T15:16:08.800Z,5.99
2018-11-28T15:17:08.933Z,6.01
2018-11-28T15:18:09.085Z,5.94
2018-11-28T15:19:09.337Z,5.87
2018-11-28T15:20:09.533Z,5.87
2018-11-28T15:21:09.626Z,5.91
2018-11-28T15:22:09.754Z,5.97
2018-11-28T15:23:09.961Z,5.84
2018-11-28T15:24:10.234Z,5.79
2018-11-28T15:25:10.387Z,5.84
2018-11-28T15:26:10.523Z,5.71
2018-11-28T15:27:10.672Z,5.80
2018-11-28T15:28:10.898Z,5.75
2018-11-28T15:29:11.105Z,5.61
2018-11-28T15:30:11.272Z,5.61
2018-11-28T15:31:11.909Z,5.59
2018-11-28T15:32:11.597Z,5.65
2018-11-28T15:33:11.753Z,5.57
2018-11-28T15:34:11.917Z,5.47
2018-11-28T15:35:11.996Z,5.48
2018-11-28T15:36:12.366Z,5.36
2018-11-28T15:37:12.436Z,5.32
2018-11-28T15:38:12.508Z,5.36
2018-11-28T15:39:12.682Z,5.33
2018-11-28T15:40:12.963Z,5.41
2018-11-28T15:41:13.050Z,5.33
2018-11-28T15:42:13.228Z,5.36
2018-11-28T15:43:13.366Z,5.32
2018-11-28T15:44:13.612Z,5.23
2018-11-28T15:45:13.686Z,5.23
2018-11-28T15:46:15.131Z,5.35
2018-11-28T15:47:13.963Z,5.32
2018-11-28T15:48:14.268Z,5.38
2018-11-28T15:49:14.387Z,5.46
2018-11-28T15:50:14.456Z,5.38
2018-11-28T15:51:14.666Z,5.28
2018-11-28T15:52:14.860Z,5.33
2018-11-28T15:53:14.929Z,5.33
2018-11-28T15:54:15.224Z,5.30
2018-11-28T15:55:15.415Z,5.30
2018-11-28T15:56:15.610Z,5.25
2018-11-28T15:57:15.700Z,5.38
2018-11-28T15:58:15.900Z,5.33
2018-11-28T15:59:16.071Z,5.32
2018-11-28T16:00:16.091Z,5.32
2018-11-28T16:01:16.281Z,5.29
2018-11-28T16:02:16.540Z,5.25
2018-11-28T16:03:17.024Z,5.41
2018-11-28T16:04:17.033Z,5.33
2018-11-28T16:05:17.160Z,5.29
2018-11-28T16:06:17.331Z,5.23
2018-11-28T16:07:17.425Z,5.23
2018-11-28T16:08:18.136Z,5.20
2018-11-28T16:09:18.036Z,5.23
2018-11-28T16:10:17.901Z,5.17
2018-11-28T16:11:18.213Z,5.15
2018-11-28T16:12:18.457Z,5.08
2018-11-28T16:13:18.602Z,5.14
2018-11-28T16:14:18.699Z,5.15
2018-11-28T16:15:19.106Z,5.10
2018-11-28T16:16:18.987Z,5.08
2018-11-28T16:17:19.279Z,5.00
2018-11-28T16:18:19.343Z,5.04
2018-11-28T16:19:19.696Z,5.00
2018-11-28T16:20:19.585Z,5.02
2018-11-28T16:21:19.787Z,4.96
2018-11-28T16:22:19.894Z,5.04
2018-11-28T16:23:20.087Z,4.97
2018-11-28T16:24:20.142Z,4.92
2018-11-28T16:25:20.402Z,4.90
2018-11-28T16:26:20.636Z,4.87
2018-11-28T16:27:20.659Z,4.89
2018-11-28T16:28:20.921Z,4.78
2018-11-28T16:29:21.161Z,4.87
2018-11-28T16:30:21.214Z,4.87
2018-11-28T16:31:21.380Z,4.80
2018-11-28T16:32:21.672Z,4.84
2018-11-28T16:33:21.903Z,4.74
2018-11-28T16:34:21.893Z,4.86
2018-11-28T16:35:22.014Z,4.67
2018-11-28T16:36:22.161Z,4.67
2018-11-28T16:37:22.409Z,4.73
2018-11-28T16:38:22.617Z,4.67
2018-11-28T16:39:22.710Z,4.68
2018-11-28T16:40:22.894Z,4.67
2018-11-28T16:41:23.104Z,4.67
2018-11-28T16:42:23.230Z,4.68
2018-11-28T16:43:23.408Z,4.66
2018-11-28T16:44:24.251Z,4.78
2018-11-28T16:45:23.796Z,4.62
2018-11-28T16:46:23.969Z,4.62
2018-11-28T16:47:25.024Z,4.56
2018-11-28T16:48:24.297Z,4.56
2018-11-28T16:49:24.565Z,4.60
2018-11-28T16:50:24.705Z,4.59
2018-11-28T16:51:24.822Z,4.63
2018-11-28T16:52:25.112Z,4.62
2018-11-28T16:53:25.091Z,4.59
2018-11-28T16:54:25.343Z,4.62
2018-11-28T16:55:25.489Z,4.62
2018-11-28T16:56:25.599Z,4.66
2018-11-28T16:57:25.781Z,4.63
2018-11-28T16:58:25.970Z,4.68
2018-11-28T16:59:30.762Z,4.67
2018-11-28T17:00:26.375Z,4.73
2018-11-28T17:01:26.513Z,4.71
2018-11-28T17:02:26.712Z,4.78
2018-11-28T17:03:26.770Z,4.77
2018-11-28T17:04:26.931Z,4.84
2018-11-28T17:05:27.197Z,4.89
2018-11-28T17:06:27.291Z,4.82
2018-11-28T17:07:27.557Z,4.90
2018-11-28T17:08:27.701Z,4.92
2018-11-28T17:09:27.820Z,4.84
2018-11-28T17:10:27.985Z,4.77
2018-11-28T17:11:30.023Z,4.89
2018-11-28T17:12:28.351Z,4.77
2018-11-28T17:13:28.641Z,4.75
2018-11-28T17:14:28.701Z,4.68
2018-11-28T17:15:28.862Z,4.75
2018-11-28T17:16:29.049Z,4.66
2018-11-28T17:17:29.223Z,4.63
2018-11-28T17:18:29.328Z,4.62
2018-11-28T17:19:29.562Z,4.70
2018-11-28T17:20:29.833Z,4.63
2018-11-28T17:21:30.599Z,4.56
2018-11-28T17:22:30.029Z,4.58
2018-11-28T17:23:30.960Z,4.53
2018-11-28T17:24:30.458Z,4.60
2018-11-28T17:25:30.480Z,4.59
2018-11-28T17:26:30.643Z,4.58
2018-11-28T17:27:30.837Z,4.62
2018-11-28T17:29:31.943Z,4.62
2018-11-28T17:30:31.580Z,4.62
2018-11-28T17:31:31.641Z,4.55
2018-11-28T17:32:31.718Z,4.53
2018-11-28T17:33:32.080Z,4.45
2018-11-28T17:34:32.273Z,4.41
2018-11-28T17:35:32.740Z,4.40
2018-11-28T17:36:32.611Z,4.37
2018-11-28T17:37:32.716Z,4.35
2018-11-28T17:38:32.884Z,4.30
2018-11-28T17:39:33.136Z,4.31
2018-11-28T17:40:33.437Z,4.31
2018-11-28T17:41:33.222Z,4.38
2018-11-28T17:42:33.462Z,4.31
2018-11-28T17:43:33.715Z,4.32
2018-11-28T17:44:33.788Z,4.28
2018-11-28T17:45:33.995Z,4.26
2018-11-28T17:46:34.182Z,4.37
2018-11-28T17:47:34.381Z,4.32
2018-11-28T17:48:35.179Z,4.44
2018-11-28T17:49:35.404Z,4.32
2018-11-28T17:50:34.925Z,4.40
2018-11-28T17:53:22.843Z,4.49
2018-11-28T17:55:22.790Z,4.58
2018-11-28T17:56:23.375Z,4.60
2018-11-28T17:57:24.986Z,4.66
2018-11-28T17:59:23.456Z,4.71
2018-11-28T18:00:22.834Z,4.53
2018-11-28T18:07:34.044Z,4.56
2018-11-28T18:08:34.702Z,4.53
2018-11-28T18:09:34.702Z,4.52
2018-11-28T18:10:34.682Z,4.58
2018-11-28T18:11:47.058Z,4.58
2018-11-28T18:19:08.724Z,4.41
2018-11-28T18:20:02.492Z,4.50
2018-11-28T18:21:02.262Z,4.52
2018-11-28T18:22:02.627Z,4.55
2018-11-28T18:23:02.652Z,4.49
2018-11-28T18:24:02.591Z,4.58
2018-11-28T18:25:02.257Z,4.60
2018-11-28T18:26:13.644Z,4.53
2018-11-28T18:27:03.596Z,4.56
2018-11-28T18:28:04.662Z,4.62
2018-11-28T18:30:46.616Z,4.63
2018-11-28T18:34:02.170Z,4.63
2018-11-28T18:35:02.178Z,4.68
2018-11-28T18:36:01.316Z,4.67
2018-11-28T18:37:03.533Z,4.70
2018-11-28T18:38:02.928Z,4.74
2018-11-28T18:39:17.095Z,4.71
2018-11-28T18:40:04.425Z,4.74
2018-11-28T18:41:04.442Z,4.68
2018-11-28T18:42:03.547Z,4.62
2018-11-28T18:43:03.685Z,4.74
2018-11-28T18:44:03.205Z,4.75
2018-11-28T18:45:03.657Z,4.90
2018-11-28T18:46:02.531Z,4.80
2018-11-28T18:47:02.189Z,4.92
2018-11-28T18:48:04.373Z,4.92
2018-11-28T18:50:36.612Z,4.92
2018-11-28T18:51:45.964Z,4.94
2018-11-28T18:52:37.379Z,5.02
2018-11-28T18:55:18.950Z,4.96
2018-11-28T18:56:19.815Z,5.02
2018-11-28T18:57:19.423Z,5.07
2018-11-28T18:58:19.051Z,4.99
2018-11-28T18:59:17.676Z,5.20
2018-11-28T19:00:17.677Z,5.08
2018-11-28T19:01:18.285Z,5.10
2018-11-28T19:02:18.053Z,5.14
2018-11-28T19:03:17.929Z,5.11
2018-11-28T19:04:18.535Z,5.12
2018-11-28T19:05:18.235Z,5.17
2018-11-28T19:06:30.812Z,5.11
2018-11-28T19:07:18.939Z,5.10
2018-11-28T19:08:18.729Z,5.17
2018-11-28T19:15:57.044Z,5.20
2018-11-28T19:16:46.073Z,5.23
2018-11-28T19:17:49.626Z,5.14
2018-11-28T19:19:22.167Z,5.14
2018-11-28T19:32:54.950Z,5.07
2018-11-28T19:36:46.056Z,5.14
2018-11-28T19:37:35.449Z,5.08
2018-11-28T19:38:31.979Z,5.05
2018-11-28T19:39:23.788Z,5.02
2018-11-28T19:42:29.451Z,5.00
2018-11-28T19:43:30.889Z,5.14
2018-11-28T19:44:27.607Z,5.11
2018-11-28T19:45:29.727Z,5.14
2018-11-28T19:46:27.744Z,5.17
2018-11-28T19:47:27.934Z,5.18
2018-11-28T19:48:28.124Z,5.10
2018-11-28T19:49:28.257Z,5.04
2018-11-28T19:50:28.536Z,4.99
2018-11-28T19:51:28.682Z,5.02
2018-11-28T19:52:28.868Z,4.99
2018-11-28T19:53:29.212Z,5.02
2018-11-28T19:54:29.656Z,5.08
2018-11-28T19:55:29.447Z,5.08
2018-11-28T19:56:29.591Z,5.02
2018-11-28T19:57:29.698Z,4.93
2018-11-28T19:58:29.938Z,4.99
2018-11-28T19:59:30.356Z,5.04
2018-11-28T20:00:30.104Z,5.05
2018-11-28T20:01:30.586Z,5.04
2018-11-28T20:02:30.515Z,5.02
2018-11-28T20:03:30.524Z,5.07
2018-11-28T20:04:30.907Z,5.14
2018-11-28T20:05:31.008Z,5.15
2018-11-28T20:06:31.319Z,5.25
2018-11-28T20:07:31.320Z,5.10
2018-11-28T20:08:31.579Z,5.20
2018-11-28T20:09:31.640Z,5.18
2018-11-28T20:10:31.799Z,5.14
2018-11-28T20:11:32.939Z,5.17
2018-11-28T20:12:32.048Z,5.14
2018-11-28T20:13:32.290Z,5.07
2018-11-28T20:14:32.848Z,5.08
2018-11-28T20:17:07.912Z,5.17
2018-11-28T20:18:19.030Z,5.15
2018-11-28T20:19:18.408Z,5.23
2018-11-28T20:23:08.979Z,5.23
2018-11-28T20:24:09.614Z,5.36
2018-11-28T20:25:09.338Z,5.29